Terminal Aerodrome Forecast
Issued by NWS

Home | Current Version | Previous Version | Text Only | Print | Product List | Glossary On
Versions: 1 2 3 4 5 6 7 8 9 10 11 12 13 14 15 16 17 18 19 20 21 22
000
FTUS41 KPBZ 271120
TAFZZV
TAF
KZZV 271120Z 2712/2812 18005KT P6SM OVC070
     FM271400 21007KT P6SM -RASN OVC050
     FM271600 21012G18KT 6SM -RA BKN025
     FM272000 17004KT P6SM BKN040
     FM280000 16005KT P6SM BKN100=

USA.gov is the U.S. government's official web portal to all federal, state and local government web resources and services.